createdAt,value
2023-03-17T00:01:04.425Z,81.40
2023-03-17T00:06:13.026Z,81.40
2023-03-17T00:11:18.760Z,81.40
2023-03-17T00:16:24.383Z,81.30
2023-03-17T00:21:30.615Z,81.30
2023-03-17T00:26:35.482Z,81.30
2023-03-17T00:31:40.111Z,81.30
2023-03-17T00:36:47.186Z,81.40
2023-03-17T00:41:51.929Z,81.40
2023-03-17T00:46:56.544Z,81.10
2023-03-17T00:52:00.252Z,81.10
2023-03-17T00:57:04.907Z,80.90
2023-03-17T01:02:12.392Z,80.50
2023-03-17T01:07:15.967Z,80.20
2023-03-17T01:12:20.672Z,79.80
2023-03-17T01:17:25.582Z,79.30
2023-03-17T01:22:29.141Z,78.90
2023-03-17T01:27:37.761Z,78.50
2023-03-17T01:32:41.145Z,78.40
2023-03-17T01:37:45.140Z,78.30
2023-03-17T01:42:53.641Z,78.10
2023-03-17T01:47:57.468Z,77.90
2023-03-17T01:53:00.976Z,77.80
2023-03-17T01:58:05.590Z,77.70
2023-03-17T02:03:09.398Z,77.70
2023-03-17T02:08:14.842Z,77.70
2023-03-17T02:13:19.708Z,77.70
2023-03-17T02:18:28.986Z,77.70
2023-03-17T02:23:34.346Z,77.80
2023-03-17T02:28:37.554Z,77.90
2023-03-17T02:33:41.080Z,78.00
2023-03-17T02:38:46.117Z,78.10
2023-03-17T02:43:49.723Z,78.10
2023-03-17T02:48:53.651Z,78.00
2023-03-17T02:53:58.304Z,77.80
2023-03-17T02:59:01.700Z,77.50
2023-03-17T03:04:04.929Z,77.40
2023-03-17T03:09:11.065Z,77.40
2023-03-17T03:14:15.036Z,77.60
2023-03-17T03:19:18.778Z,77.70
2023-03-17T03:24:23.771Z,77.70
2023-03-17T03:29:27.506Z,77.60
2023-03-17T03:34:30.895Z,77.30
2023-03-17T03:39:35.510Z,77.10
2023-03-17T03:44:39.300Z,77.00
2023-03-17T03:49:45.241Z,76.80
2023-03-17T03:54:50.598Z,76.50
2023-03-17T03:59:54.300Z,76.20
2023-03-17T04:04:58.249Z,75.70
2023-03-17T04:10:03.387Z,75.00
2023-03-17T04:15:08.014Z,74.70
2023-03-17T04:20:13.504Z,74.40
2023-03-17T04:25:19.015Z,74.10
2023-03-17T04:30:22.588Z,73.70
2023-03-17T04:35:25.842Z,73.30
2023-03-17T04:40:31.085Z,73.30
2023-03-17T04:45:34.990Z,73.10
2023-03-17T04:50:39.170Z,72.90
2023-03-17T04:55:43.913Z,72.70
2023-03-17T05:00:47.761Z,72.30
2023-03-17T05:05:51.651Z,72.00
2023-03-17T05:10:56.487Z,71.90
2023-03-17T05:16:01.204Z,71.90
2023-03-17T05:21:05.756Z,71.70
2023-03-17T05:26:11.337Z,71.60
2023-03-17T05:31:14.700Z,71.20
2023-03-17T05:36:18.560Z,71.20
2023-03-17T05:41:23.604Z,71.30
2023-03-17T05:46:28.065Z,71.40
2023-03-17T05:51:31.959Z,71.60
2023-03-17T05:56:36.974Z,71.80
2023-03-17T06:01:40.696Z,72.00
2023-03-17T06:06:44.224Z,72.10
2023-03-17T06:11:48.964Z,72.00
2023-03-17T06:16:52.775Z,71.70
2023-03-17T06:21:56.508Z,71.70
2023-03-17T06:27:01.425Z,71.60
2023-03-17T06:32:19.211Z,71.60
2023-03-17T06:37:24.699Z,71.20
2023-03-17T06:42:29.758Z,70.90
2023-03-17T06:47:34.524Z,70.70
2023-03-17T06:52:38.432Z,70.60
2023-03-17T06:57:43.689Z,70.30
2023-03-17T07:02:48.008Z,70.20
2023-03-17T07:07:51.774Z,70.10
2023-03-17T07:12:56.678Z,69.90
2023-03-17T07:18:00.254Z,69.90
2023-03-17T07:23:03.824Z,69.80
2023-03-17T07:28:08.565Z,69.60
2023-03-17T07:33:12.599Z,69.60
2023-03-17T07:38:16.967Z,69.50
2023-03-17T07:43:21.763Z,69.20
2023-03-17T07:48:25.395Z,68.70
2023-03-17T07:53:29.932Z,67.80
2023-03-17T07:58:34.889Z,67.10
2023-03-17T08:03:41.333Z,66.50
2023-03-17T08:08:45.238Z,66.10
2023-03-17T08:13:51.090Z,65.60
2023-03-17T08:18:54.731Z,65.10
2023-03-17T08:23:58.125Z,64.70
2023-03-17T08:29:03.118Z,63.60
2023-03-17T08:34:06.703Z,63.20
2023-03-17T08:39:10.805Z,62.20
2023-03-17T08:44:16.907Z,61.80
2023-03-17T08:49:22.098Z,61.50
2023-03-17T08:54:25.417Z,61.30
2023-03-17T08:59:30.472Z,61.10
2023-03-17T09:04:34.355Z,60.90
2023-03-17T09:09:38.386Z,60.50
2023-03-17T09:14:44.838Z,59.80
2023-03-17T09:19:48.483Z,59.50
2023-03-17T09:24:51.833Z,59.50
2023-03-17T09:29:56.710Z,58.90
2023-03-17T09:35:00.340Z,58.60
2023-03-17T09:40:08.586Z,58.00
2023-03-17T09:45:21.163Z,57.90
2023-03-17T09:50:28.508Z,57.30
2023-03-17T09:55:33.996Z,56.70
2023-03-17T10:00:39.767Z,56.40
2023-03-17T10:05:43.353Z,55.70
2023-03-17T10:10:50.696Z,55.60
2023-03-17T10:16:00.082Z,55.10
2023-03-17T10:21:08.075Z,54.80
2023-03-17T10:26:31.224Z,54.70
2023-03-17T10:31:38.169Z,54.40
2023-03-17T10:36:44.949Z,54.10
2023-03-17T10:41:56.164Z,53.70
2023-03-17T10:47:01.190Z,53.70
2023-03-17T10:52:09.012Z,53.70
2023-03-17T10:57:15.777Z,53.30
2023-03-17T11:02:26.104Z,52.90
2023-03-17T11:07:35.186Z,52.70
2023-03-17T11:12:41.457Z,52.40
2023-03-17T11:17:52.971Z,52.20
2023-03-17T11:23:02.576Z,52.00
2023-03-17T11:28:19.412Z,51.50
2023-03-17T11:33:35.187Z,51.70
2023-03-17T11:38:45.351Z,50.50
2023-03-17T11:44:01.935Z,50.30
2023-03-17T11:49:13.371Z,50.50
2023-03-17T11:54:24.174Z,50.30
2023-03-17T11:59:35.452Z,50.50
2023-03-17T12:04:50.001Z,50.30
2023-03-17T12:10:03.050Z,50.40
2023-03-17T12:15:15.920Z,50.10
2023-03-17T12:20:26.643Z,50.30
2023-03-17T12:25:34.495Z,50.30
2023-03-17T12:30:48.005Z,50.30
2023-03-17T12:35:53.553Z,50.20
2023-03-17T12:41:17.024Z,50.00
2023-03-17T12:46:38.086Z,49.80
2023-03-17T12:52:04.591Z,49.70
2023-03-17T12:57:14.941Z,49.40
2023-03-17T13:02:25.634Z,49.10
2023-03-17T13:07:38.606Z,49.10
2023-03-17T13:13:13.822Z,48.90
2023-03-17T13:18:48.106Z,48.50
2023-03-17T13:24:00.115Z,48.50
2023-03-17T13:29:23.984Z,48.40
2023-03-17T13:34:30.336Z,48.10
2023-03-17T13:40:09.471Z,47.70
2023-03-17T13:45:37.560Z,47.70
2023-03-17T13:50:42.231Z,47.30
2023-03-17T13:56:12.155Z,47.20
2023-03-17T14:01:16.999Z,47.20
2023-03-17T14:06:22.473Z,47.50
2023-03-17T14:11:32.567Z,48.10
2023-03-17T14:16:38.721Z,48.40
2023-03-17T14:21:42.409Z,48.90
2023-03-17T14:26:48.309Z,49.20
2023-03-17T14:32:00.428Z,49.20
2023-03-17T14:37:05.961Z,49.50
2023-03-17T14:42:11.895Z,49.60
2023-03-17T14:47:21.198Z,49.80
2023-03-17T14:52:28.053Z,49.90
2023-03-17T14:57:35.143Z,50.00
2023-03-17T15:02:40.825Z,50.20
2023-03-17T15:07:44.750Z,50.40
2023-03-17T15:12:49.956Z,50.60
2023-03-17T15:17:55.919Z,50.90
2023-03-17T15:23:01.438Z,51.00
2023-03-17T15:28:12.821Z,51.20
2023-03-17T15:33:23.241Z,51.30
2023-03-17T15:38:27.061Z,51.50
2023-03-17T15:43:31.763Z,51.60
2023-03-17T15:48:37.372Z,51.90
2023-03-17T15:53:40.998Z,52.30
2023-03-17T15:58:46.531Z,52.60
2023-03-17T16:03:51.012Z,52.80
2023-03-17T16:08:54.617Z,52.90
2023-03-17T16:14:00.461Z,53.00
2023-03-17T16:19:05.728Z,52.90
2023-03-17T16:24:11.446Z,52.90
2023-03-17T16:29:22.144Z,52.90
2023-03-17T16:34:26.246Z,53.50
2023-03-17T16:39:33.574Z,53.20
2023-03-17T16:44:38.691Z,53.60
2023-03-17T16:49:41.995Z,53.60
2023-03-17T16:54:45.388Z,53.80
2023-03-17T16:59:50.408Z,54.00
2023-03-17T17:04:53.807Z,54.20
2023-03-17T17:09:57.467Z,54.60
2023-03-17T17:15:02.134Z,54.90
2023-03-17T17:20:07.691Z,55.30
2023-03-17T17:25:11.177Z,55.70
2023-03-17T17:30:19.364Z,56.00
2023-03-17T17:35:23.280Z,56.20
2023-03-17T17:40:26.719Z,56.60
2023-03-17T17:45:32.702Z,56.80
2023-03-17T17:50:36.186Z,57.10
2023-03-17T17:55:40.816Z,57.50
2023-03-17T18:00:45.836Z,57.70
2023-03-17T18:05:49.127Z,58.00
2023-03-17T18:10:52.589Z,58.30
2023-03-17T18:15:57.307Z,58.50
2023-03-17T18:21:00.951Z,58.80
2023-03-17T18:26:06.032Z,58.90
2023-03-17T18:31:16.519Z,59.20
2023-03-17T18:36:21.118Z,59.50
2023-03-17T18:41:24.908Z,59.70
2023-03-17T18:46:29.719Z,60.00
2023-03-17T18:51:33.460Z,60.10
2023-03-17T18:56:36.637Z,60.30
2023-03-17T19:01:41.348Z,60.40
2023-03-17T19:06:44.648Z,60.30
2023-03-17T19:11:47.882Z,60.30
2023-03-17T19:16:52.965Z,60.30
2023-03-17T19:21:56.339Z,60.20
2023-03-17T19:26:59.593Z,60.20
2023-03-17T19:32:04.256Z,60.20
2023-03-17T19:37:07.560Z,60.30
2023-03-17T19:42:12.072Z,60.30
2023-03-17T19:47:16.883Z,60.40
2023-03-17T19:52:20.255Z,60.40
2023-03-17T19:57:23.897Z,60.30
2023-03-17T20:02:28.678Z,60.40
2023-03-17T20:07:33.016Z,60.60
2023-03-17T20:12:38.189Z,60.70
2023-03-17T20:17:43.108Z,60.70
2023-03-17T20:22:46.744Z,60.70
2023-03-17T20:27:50.176Z,60.80
2023-03-17T20:32:55.352Z,61.00
2023-03-17T20:37:58.833Z,61.10
2023-03-17T20:43:02.557Z,61.20
2023-03-17T20:48:10.423Z,61.30
2023-03-17T20:53:13.842Z,61.20
2023-03-17T20:58:19.918Z,61.20
2023-03-17T21:03:24.788Z,61.10
2023-03-17T21:08:28.481Z,61.10
2023-03-17T21:13:33.126Z,61.20
2023-03-17T21:18:38.158Z,61.20
2023-03-17T21:23:41.905Z,61.30
2023-03-17T21:28:45.410Z,61.40
2023-03-17T21:33:50.765Z,61.50
2023-03-17T21:38:54.084Z,61.70
2023-03-17T21:43:58.098Z,61.80
2023-03-17T21:49:02.836Z,62.10
2023-03-17T21:54:06.462Z,62.10
2023-03-17T21:59:11.092Z,62.20
2023-03-17T22:04:15.783Z,62.30
2023-03-17T22:09:19.420Z,62.30
2023-03-17T22:14:22.785Z,62.40
2023-03-17T22:19:28.689Z,62.50
2023-03-17T22:24:32.424Z,62.40
2023-03-17T22:29:36.760Z,62.60
2023-03-17T22:34:41.436Z,62.70
2023-03-17T22:39:44.716Z,62.80
2023-03-17T22:44:47.937Z,62.90
2023-03-17T22:49:52.574Z,63.00
2023-03-17T22:54:56.209Z,63.10
2023-03-17T22:59:59.477Z,63.10
2023-03-17T23:05:04.887Z,63.30
2023-03-17T23:10:09.847Z,63.50
2023-03-17T23:15:13.651Z,63.70
2023-03-17T23:20:19.026Z,63.80
2023-03-17T23:25:23.225Z,64.00
2023-03-17T23:30:26.718Z,64.10
2023-03-17T23:35:32.313Z,64.40
2023-03-17T23:40:36.076Z,64.60
2023-03-17T23:45:41.244Z,64.60
2023-03-17T23:50:46.038Z,64.70
2023-03-17T23:55:49.410Z,64.80
